createdAt,value
2016-07-15T00:00:11.126Z,84.47
2016-07-15T00:01:11.128Z,84.66
2016-07-15T00:02:11.133Z,84.28
2016-07-15T00:03:11.854Z,84.38
2016-07-15T00:04:11.144Z,84.56
2016-07-15T00:06:26.018Z,84.47
2016-07-15T00:07:11.351Z,84.85
2016-07-15T00:08:11.353Z,85.62
2016-07-15T00:09:11.159Z,84.76
2016-07-15T00:10:11.165Z,85.33
2016-07-15T00:11:11.890Z,84.85
2016-07-15T00:12:11.896Z,85.33
2016-07-15T00:13:11.905Z,84.85
2016-07-15T00:14:11.173Z,84.95
2016-07-15T00:15:11.198Z,85.33
2016-07-15T00:16:11.185Z,84.76
2016-07-15T00:17:26.058Z,84.95
2016-07-15T00:18:11.206Z,85.24
2016-07-15T00:19:11.199Z,85.05
2016-07-15T00:20:11.205Z,85.24
2016-07-15T00:21:11.416Z,85.24
2016-07-15T00:22:11.219Z,85.05
2016-07-15T00:23:11.227Z,85.24
2016-07-15T00:24:11.233Z,85.05
2016-07-15T00:25:11.224Z,85.24
2016-07-15T00:26:11.235Z,84.95
2016-07-15T00:27:11.461Z,85.14
2016-07-15T00:28:11.252Z,84.85
2016-07-15T00:29:11.260Z,85.42
2016-07-15T00:30:11.252Z,85.52
2016-07-15T00:31:11.255Z,85.42
2016-07-15T00:32:11.461Z,85.33
2016-07-15T00:33:11.256Z,84.95
2016-07-15T00:34:11.997Z,85.52
2016-07-15T00:35:12.031Z,85.14
2016-07-15T00:36:11.270Z,85.52
2016-07-15T00:37:11.476Z,85.52
2016-07-15T00:38:11.285Z,85.62
2016-07-15T00:39:11.285Z,85.42
2016-07-15T00:40:11.291Z,85.42
2016-07-15T00:41:11.297Z,85.9
2016-07-15T00:42:11.407Z,86.1
2016-07-15T00:43:11.306Z,86
2016-07-15T00:44:11.317Z,86
2016-07-15T00:45:11.327Z,85.42
2016-07-15T00:46:11.520Z,85.42
2016-07-15T00:47:11.521Z,85.71
2016-07-15T00:48:11.319Z,85.62
2016-07-15T00:49:11.329Z,85.9
2016-07-15T00:50:11.342Z,85.9
2016-07-15T00:51:11.343Z,86.29
2016-07-15T00:52:11.349Z,86.19
2016-07-15T00:53:12.075Z,85.9
2016-07-15T00:54:12.084Z,85.71
2016-07-15T00:55:12.090Z,86.19
2016-07-15T00:56:11.355Z,85.9
2016-07-15T00:57:12.125Z,85.42
2016-07-15T00:58:12.130Z,86.19
2016-07-15T00:59:11.366Z,86
2016-07-15T01:00:11.413Z,85.9
2016-07-15T01:01:12.335Z,85.42
2016-07-15T01:02:11.387Z,86
2016-07-15T01:03:11.390Z,86
2016-07-15T01:04:11.598Z,86.19
2016-07-15T01:05:11.405Z,85.9
2016-07-15T01:06:12.129Z,85.81
2016-07-15T01:07:11.424Z,86.1
2016-07-15T01:08:11.409Z,86
2016-07-15T01:09:11.898Z,85.81
2016-07-15T01:10:11.419Z,86.29
2016-07-15T01:11:26.295Z,85.9
2016-07-15T01:12:11.428Z,85.81
2016-07-15T01:13:11.436Z,86.29
2016-07-15T01:16:12.175Z,85.71
2016-07-15T01:17:12.187Z,86.29
2016-07-15T01:18:12.195Z,86.1
2016-07-15T01:19:12.458Z,85.71
2016-07-15T01:20:11.466Z,86.29
2016-07-15T01:21:12.220Z,86.29
2016-07-15T01:22:11.478Z,86.67
2016-07-15T01:23:11.479Z,86.1
2016-07-15T01:24:11.482Z,85.9
2016-07-15T01:25:12.235Z,86.38
2016-07-15T01:26:11.513Z,86.19
2016-07-15T01:27:11.493Z,86.29
2016-07-15T01:28:11.498Z,85.9
2016-07-15T01:29:11.504Z,86.19
2016-07-15T01:30:11.516Z,86.1
2016-07-15T01:32:11.529Z,86.67
2016-07-15T01:33:11.522Z,86.67
2016-07-15T01:34:11.543Z,86.29
2016-07-15T01:35:11.554Z,86.57
2016-07-15T01:36:12.271Z,86.67
2016-07-15T01:37:12.263Z,86.19
2016-07-15T01:38:11.542Z,86.67
2016-07-15T01:39:11.543Z,86.76
2016-07-15T01:40:11.552Z,86.76
2016-07-15T01:41:11.758Z,86.1
2016-07-15T01:42:11.869Z,86.67
2016-07-15T01:43:26.430Z,86.76
2016-07-15T01:44:11.571Z,86.19
2016-07-15T01:45:11.577Z,86.76
2016-07-15T01:46:11.782Z,86.67
2016-07-15T01:47:11.595Z,86.29
2016-07-15T01:48:11.788Z,86.47
2016-07-15T01:49:11.809Z,86.47
2016-07-15T01:50:12.333Z,86.67
2016-07-15T01:51:11.616Z,86.67
2016-07-15T01:52:12.345Z,86.29
2016-07-15T01:53:11.607Z,86.19
2016-07-15T01:54:11.616Z,86.29
2016-07-15T01:55:11.617Z,86.76
2016-07-15T01:56:11.623Z,86.57
2016-07-15T01:57:11.631Z,86.29
2016-07-15T01:58:11.634Z,86.57
2016-07-15T01:59:12.395Z,86.29
2016-07-15T02:00:12.367Z,86.38
2016-07-15T02:01:12.383Z,86.29
2016-07-15T02:02:12.390Z,86.57
2016-07-15T02:03:12.381Z,86.76
2016-07-15T02:04:12.403Z,86.76
2016-07-15T02:05:12.400Z,86.29
2016-07-15T02:06:12.419Z,86.67
2016-07-15T02:07:26.539Z,86.57
2016-07-15T02:08:11.680Z,86.86
2016-07-15T02:09:11.685Z,86.57
2016-07-15T02:10:11.900Z,86.96
2016-07-15T02:11:12.627Z,86.86
2016-07-15T02:12:12.422Z,86.38
2016-07-15T02:13:11.708Z,86.67
2016-07-15T02:14:11.732Z,86.96
2016-07-15T02:15:11.935Z,86.67
2016-07-15T02:16:11.930Z,87.15
2016-07-15T02:17:11.719Z,86.67
2016-07-15T02:18:11.721Z,87.53
2016-07-15T02:19:11.729Z,87.34
2016-07-15T02:20:11.740Z,86.76
2016-07-15T02:21:11.740Z,87.34
2016-07-15T02:22:12.673Z,86.67
2016-07-15T02:23:12.472Z,87.43
2016-07-15T02:24:11.752Z,86.96
2016-07-15T02:25:11.759Z,86.76
2016-07-15T02:26:11.760Z,86.86
2016-07-15T02:27:12.497Z,87.34
2016-07-15T02:28:12.924Z,87.15
2016-07-15T02:29:11.776Z,86.96
2016-07-15T02:30:11.780Z,86.76
2016-07-15T02:31:11.783Z,86.57
2016-07-15T02:32:11.996Z,86.76
2016-07-15T02:33:11.799Z,86.67
2016-07-15T02:34:12.535Z,86.96
2016-07-15T02:35:12.006Z,86.57
2016-07-15T02:36:12.216Z,86.76
2016-07-15T02:37:26.676Z,86.86
2016-07-15T02:38:11.833Z,86.86
2016-07-15T02:39:12.047Z,86.86
2016-07-15T02:40:11.822Z,86.67
2016-07-15T02:41:11.854Z,86.86
2016-07-15T02:43:11.844Z,86.29
2016-07-15T02:44:12.587Z,86.67
2016-07-15T02:45:11.851Z,86.96
2016-07-15T02:46:11.859Z,86.29
2016-07-15T02:47:12.586Z,86.47
2016-07-15T02:48:12.618Z,86.67
2016-07-15T02:49:12.077Z,86.57
2016-07-15T02:50:11.872Z,86.76
2016-07-15T02:51:11.880Z,86.29
2016-07-15T02:52:12.638Z,86.86
2016-07-15T02:53:12.172Z,86.47
2016-07-15T02:54:11.888Z,86.67
2016-07-15T02:55:11.894Z,86.67
2016-07-15T02:56:11.948Z,86.57
2016-07-15T02:57:11.912Z,86.57
2016-07-15T02:58:11.911Z,86.76
2016-07-15T02:59:12.123Z,86.76
2016-07-15T03:00:11.923Z,86.67
2016-07-15T03:02:11.923Z,86.86
2016-07-15T03:03:11.952Z,86.47
2016-07-15T03:04:11.937Z,86.29
2016-07-15T03:05:11.945Z,86.86
2016-07-15T03:06:11.947Z,86.47
2016-07-15T03:07:11.947Z,86.29
2016-07-15T03:08:11.955Z,86.86
2016-07-15T03:09:11.995Z,86.67
2016-07-15T03:10:12.895Z,86.67
2016-07-15T03:11:12.697Z,86.96
2016-07-15T03:12:12.917Z,86.76
2016-07-15T03:13:12.733Z,86.76
2016-07-15T03:14:11.978Z,86.86
2016-07-15T03:15:12.929Z,86.47
2016-07-15T03:16:11.993Z,86.86
2016-07-15T03:17:12.739Z,86.76
2016-07-15T03:18:12.750Z,87.15
2016-07-15T03:19:12.007Z,86.96
2016-07-15T03:20:12.012Z,86.76
2016-07-15T03:21:12.745Z,86.86
2016-07-15T03:22:12.224Z,86.47
2016-07-15T03:23:12.023Z,86.86
2016-07-15T03:24:12.032Z,86.86
2016-07-15T03:25:12.040Z,86.76
2016-07-15T03:26:12.047Z,86.86
2016-07-15T03:27:12.768Z,86.57
2016-07-15T03:28:12.067Z,86.67
2016-07-15T03:29:12.792Z,86.67
2016-07-15T03:30:12.802Z,86.86
2016-07-15T03:31:12.806Z,86.57
2016-07-15T03:32:12.814Z,86.96
2016-07-15T03:33:12.070Z,86.86
2016-07-15T03:34:12.077Z,86.86
2016-07-15T03:35:12.804Z,86.86
2016-07-15T03:36:13.010Z,86.67
2016-07-15T03:38:12.109Z,86.86
2016-07-15T03:39:12.853Z,86.67
2016-07-15T03:40:12.869Z,86.47
2016-07-15T03:41:13.060Z,86.47
2016-07-15T03:42:12.893Z,86.57
2016-07-15T03:43:12.324Z,86.86
2016-07-15T03:44:12.115Z,86.67
2016-07-15T03:45:12.127Z,86.67
2016-07-15T03:46:12.329Z,86.38
2016-07-15T03:47:12.131Z,86.29
2016-07-15T03:48:12.140Z,86.67
2016-07-15T03:49:12.155Z,86.86
2016-07-15T03:50:12.166Z,86.86
2016-07-15T03:51:12.920Z,86.67
2016-07-15T03:52:12.164Z,86.38
2016-07-15T03:53:12.896Z,86.76
2016-07-15T03:54:12.167Z,86.86
2016-07-15T03:55:12.371Z,86.38
2016-07-15T03:56:12.187Z,86.47
2016-07-15T03:57:12.925Z,86.76
2016-07-15T03:58:12.397Z,86.76
2016-07-15T03:59:12.195Z,86.57
2016-07-15T04:00:12.198Z,86.57
2016-07-15T04:01:12.199Z,86.57
2016-07-15T04:02:12.934Z,86.67
2016-07-15T04:03:12.952Z,86.47
2016-07-15T04:04:12.973Z,86.1
2016-07-15T04:05:13.188Z,86.19
2016-07-15T04:06:12.221Z,86.19
2016-07-15T04:07:12.226Z,86.29
2016-07-15T04:08:12.234Z,85.9
2016-07-15T04:09:12.257Z,86.29
2016-07-15T04:10:12.455Z,86.29
2016-07-15T04:11:12.251Z,85.9
2016-07-15T04:12:12.976Z,86.38
2016-07-15T04:13:12.255Z,85.9
2016-07-15T04:14:12.485Z,85.52
2016-07-15T04:15:12.273Z,86.29
2016-07-15T04:16:13.015Z,86
2016-07-15T04:17:13.001Z,85.81
2016-07-15T04:18:12.285Z,85.81
2016-07-15T04:20:12.292Z,86
2016-07-15T04:21:12.295Z,86
2016-07-15T04:22:12.302Z,86
2016-07-15T04:23:12.309Z,86.1
2016-07-15T04:24:12.317Z,86.23
2016-07-15T04:25:12.519Z,86
2016-07-15T04:26:13.049Z,85.94
2016-07-15T04:27:12.327Z,86.23
2016-07-15T04:28:13.058Z,86.14
2016-07-15T04:29:13.074Z,86
2016-07-15T04:30:13.103Z,85.9
2016-07-15T04:31:13.295Z,85.71
2016-07-15T04:32:12.349Z,85.52
2016-07-15T04:33:12.350Z,85.52
2016-07-15T04:34:12.565Z,85.42
2016-07-15T04:35:12.393Z,85.38
2016-07-15T04:36:12.367Z,85.57
2016-07-15T04:37:12.375Z,85.52
2016-07-15T04:38:13.111Z,85.57
2016-07-15T04:39:12.595Z,85.42
2016-07-15T04:40:12.394Z,85.47
2016-07-15T04:41:12.395Z,85.47
2016-07-15T04:42:12.416Z,85.66
2016-07-15T04:43:12.404Z,85.52
2016-07-15T04:44:12.423Z,85.9
2016-07-15T04:45:12.413Z,85.81
2016-07-15T04:46:12.626Z,85.42
2016-07-15T04:47:12.450Z,85.66
2016-07-15T04:48:12.636Z,85.9
2016-07-15T04:49:12.433Z,85.94
2016-07-15T04:50:12.436Z,86.04
2016-07-15T04:51:12.449Z,85.81
2016-07-15T04:52:13.178Z,85.85
2016-07-15T04:53:13.188Z,86.14
2016-07-15T04:54:12.458Z,85.85
2016-07-15T04:55:12.460Z,85.42
2016-07-15T04:56:13.207Z,86.23
2016-07-15T04:57:13.204Z,85.81
2016-07-15T04:58:13.240Z,86
2016-07-15T04:59:12.686Z,85.85
2016-07-15T05:00:12.693Z,85.57
2016-07-15T05:01:27.360Z,85.85
2016-07-15T05:02:13.224Z,85.57
2016-07-15T05:03:13.253Z,85.75
2016-07-15T05:04:13.438Z,85.57
2016-07-15T05:05:12.514Z,85.57
2016-07-15T05:06:12.519Z,85.66
2016-07-15T05:07:27.390Z,85.47
2016-07-15T05:08:12.539Z,85.18
2016-07-15T05:09:12.531Z,85.47
2016-07-15T05:10:12.536Z,84.99
2016-07-15T05:11:12.545Z,85.09
2016-07-15T05:12:12.546Z,85.47
2016-07-15T05:13:12.577Z,85.28
2016-07-15T05:15:12.572Z,85.47
2016-07-15T05:16:12.587Z,85.66
2016-07-15T05:17:12.772Z,85.57
2016-07-15T05:18:12.600Z,85.57
2016-07-15T05:19:12.583Z,85.47
2016-07-15T05:20:12.588Z,85.28
2016-07-15T05:21:12.594Z,85.09
2016-07-15T05:22:12.597Z,85.57
2016-07-15T05:23:13.350Z,85.75
2016-07-15T05:24:13.334Z,85.66
2016-07-15T05:25:13.338Z,85.75
2016-07-15T05:26:12.620Z,85.57
2016-07-15T05:27:12.628Z,85.47
2016-07-15T05:28:12.626Z,85.47
2016-07-15T05:29:12.636Z,85.57
2016-07-15T05:30:13.384Z,85.75
2016-07-15T05:31:12.642Z,85.85
2016-07-15T05:32:12.648Z,85.47
2016-07-15T05:33:12.661Z,85.09
2016-07-15T05:34:12.662Z,85.38
2016-07-15T05:35:12.657Z,85.66
2016-07-15T05:36:12.674Z,85.47
2016-07-15T05:37:12.671Z,85.57
2016-07-15T05:38:12.672Z,85.57
2016-07-15T05:39:12.679Z,85.57
2016-07-15T05:40:12.685Z,85.75
2016-07-15T05:41:12.694Z,85.28
2016-07-15T05:42:12.698Z,85.47
2016-07-15T05:43:12.705Z,85.57
2016-07-15T05:44:12.705Z,85.57
2016-07-15T05:45:12.718Z,85.18
2016-07-15T05:46:13.457Z,85.18
2016-07-15T05:47:12.723Z,85.47
2016-07-15T05:48:13.498Z,85.38
2016-07-15T05:49:12.734Z,85.57
2016-07-15T05:50:12.740Z,84.8
2016-07-15T05:51:12.874Z,84.89
2016-07-15T05:52:13.676Z,84.8
2016-07-15T05:53:13.478Z,84.89
2016-07-15T05:54:13.486Z,85.28
2016-07-15T05:55:13.490Z,85.09
2016-07-15T05:56:13.500Z,85.28
2016-07-15T05:57:13.514Z,85.28
2016-07-15T05:58:12.779Z,85.28
2016-07-15T05:59:13.197Z,84.99
2016-07-15T06:00:28.281Z,84.89
2016-07-15T06:01:12.799Z,84.8
2016-07-15T06:02:12.805Z,84.99
2016-07-15T06:03:12.808Z,84.99
2016-07-15T06:04:13.016Z,84.89
2016-07-15T06:05:13.036Z,84.32
2016-07-15T06:06:12.828Z,84.52
2016-07-15T06:07:13.041Z,84.42
2016-07-15T06:08:12.827Z,84.42
2016-07-15T06:09:12.841Z,83.94
2016-07-15T06:10:12.848Z,84.8
2016-07-15T06:11:13.069Z,84.61
2016-07-15T06:12:13.011Z,83.94
2016-07-15T06:13:12.872Z,84.7
2016-07-15T06:15:12.890Z,83.94
2016-07-15T06:16:12.876Z,83.94
2016-07-15T06:17:13.107Z,83.75
2016-07-15T06:18:12.883Z,83.65
2016-07-15T06:19:12.887Z,83.79
2016-07-15T06:20:12.891Z,83.4
2016-07-15T06:21:12.899Z,83.89
2016-07-15T06:22:12.904Z,83.6
2016-07-15T06:23:13.381Z,83.4
2016-07-15T06:24:12.917Z,83.4
2016-07-15T06:25:12.924Z,83.4
2016-07-15T06:26:13.679Z,83.03
2016-07-15T06:27:12.937Z,82.83
2016-07-15T06:28:13.147Z,82.83
2016-07-15T06:30:13.878Z,83.26
2016-07-15T06:31:13.682Z,83.22
2016-07-15T06:32:13.692Z,83.12
2016-07-15T06:33:13.695Z,82.74
2016-07-15T06:34:12.974Z,82.54
2016-07-15T06:35:13.719Z,83.03
2016-07-15T06:36:13.000Z,83.31
2016-07-15T06:37:13.737Z,83.03
2016-07-15T06:38:13.732Z,83.03
2016-07-15T06:39:13.009Z,82.74
2016-07-15T06:41:13.014Z,82.83
2016-07-15T06:42:13.356Z,82.83
2016-07-15T06:43:13.773Z,83.12
2016-07-15T06:44:13.258Z,82.74
2016-07-15T06:45:14.327Z,82.83
2016-07-15T06:46:13.998Z,82.83
2016-07-15T06:47:14.868Z,83.03
2016-07-15T06:48:13.612Z,83.31
2016-07-15T06:49:13.530Z,83.31
2016-07-15T06:50:13.887Z,83.12
2016-07-15T06:51:13.794Z,83.5
2016-07-15T06:52:13.482Z,83.5
2016-07-15T06:53:13.627Z,83.4
2016-07-15T06:54:13.775Z,82.93
2016-07-15T06:55:13.842Z,83.22
2016-07-15T06:56:13.683Z,82.74
2016-07-15T06:57:13.735Z,82.45
2016-07-15T06:58:13.728Z,83.22
2016-07-15T06:59:14.364Z,82.93
2016-07-15T07:00:13.746Z,82.83
2016-07-15T07:01:13.529Z,83.12
2016-07-15T07:02:14.594Z,83.03
2016-07-15T07:03:13.901Z,82.83
2016-07-15T07:04:13.185Z,82.93
2016-07-15T07:05:13.160Z,82.64
2016-07-15T07:06:13.168Z,82.45
2016-07-15T07:07:13.174Z,82.64
2016-07-15T07:08:13.184Z,81.97
2016-07-15T07:09:13.197Z,82.54
2016-07-15T07:10:13.215Z,82.54
2016-07-15T07:11:13.195Z,82.45
2016-07-15T07:12:13.937Z,82.45
2016-07-15T07:13:15.127Z,82.54
2016-07-15T07:14:13.217Z,82.74
2016-07-15T07:15:13.956Z,82.74
2016-07-15T07:16:13.978Z,82.45
2016-07-15T07:17:13.562Z,82.45
2016-07-15T07:18:13.979Z,81.97
2016-07-15T07:19:13.449Z,82.07
2016-07-15T07:20:13.999Z,81.92
2016-07-15T07:21:13.485Z,81.92
2016-07-15T07:22:13.290Z,81.97
2016-07-15T07:23:13.477Z,81.82
2016-07-15T07:24:14.020Z,81.63
2016-07-15T07:25:13.288Z,82.11
2016-07-15T07:26:13.288Z,80.96
2016-07-15T07:27:28.164Z,81.54
2016-07-15T07:28:13.303Z,81.25
2016-07-15T07:29:14.035Z,81.44
2016-07-15T07:30:13.313Z,81.63
2016-07-15T07:31:28.192Z,81.44
2016-07-15T07:32:13.330Z,80.96
2016-07-15T07:33:28.206Z,80.77
2016-07-15T07:34:13.346Z,80.48
2016-07-15T07:35:13.348Z,80.81
2016-07-15T07:36:13.354Z,80.1
2016-07-15T07:37:13.362Z,80.38
2016-07-15T07:38:13.375Z,80.19
2016-07-15T07:39:13.618Z,80.1
2016-07-15T07:40:14.127Z,80.1
2016-07-15T07:41:13.389Z,80.14
2016-07-15T07:42:13.501Z,80.1
2016-07-15T07:43:13.608Z,80.43
2016-07-15T07:44:13.408Z,79.75
2016-07-15T07:45:13.421Z,79.66
2016-07-15T07:47:13.432Z,79.75
2016-07-15T07:48:13.437Z,79.95
2016-07-15T07:49:13.462Z,80.33
2016-07-15T07:50:14.199Z,79.95
2016-07-15T07:51:13.464Z,79.75
2016-07-15T07:52:13.463Z,79.57
2016-07-15T07:53:13.491Z,79.85
2016-07-15T07:54:13.835Z,79.18
2016-07-15T07:55:13.580Z,79.08
2016-07-15T07:56:13.504Z,79.75
2016-07-15T07:57:13.504Z,79.18
2016-07-15T07:58:13.715Z,79.47
2016-07-15T07:59:13.511Z,79.28
2016-07-15T08:01:13.537Z,78.32
2016-07-15T08:02:14.270Z,78.89
2016-07-15T08:03:13.544Z,78.7
2016-07-15T08:04:13.568Z,78.7
2016-07-15T08:05:13.554Z,78.51
2016-07-15T08:06:13.615Z,78.51
2016-07-15T08:07:13.585Z,78.89
2016-07-15T08:08:13.596Z,79.08
2016-07-15T08:09:13.654Z,78.51
2016-07-15T08:10:13.606Z,78.89
2016-07-15T08:11:13.599Z,78.7
2016-07-15T08:12:13.828Z,78.61
2016-07-15T08:13:13.613Z,78.8
2016-07-15T08:14:13.623Z,78.22
2016-07-15T08:15:13.626Z,78.51
2016-07-15T08:16:13.635Z,78.61
2016-07-15T08:17:13.705Z,78.99
2016-07-15T08:18:13.859Z,78.99
2016-07-15T08:19:13.668Z,78.89
2016-07-15T08:20:13.663Z,78.7
2016-07-15T08:21:13.670Z,78.89
2016-07-15T08:22:13.679Z,78.13
2016-07-15T08:24:13.709Z,78.61
2016-07-15T08:25:13.710Z,78.8
2016-07-15T08:26:13.719Z,78.89
2016-07-15T08:27:13.721Z,78.7
2016-07-15T08:28:13.736Z,78.61
2016-07-15T08:29:13.722Z,78.22
2016-07-15T08:30:13.757Z,78.51
2016-07-15T08:31:13.762Z,78.13
2016-07-15T08:32:13.774Z,78.51
2016-07-15T08:33:14.700Z,78.61
2016-07-15T08:34:13.766Z,78.42
2016-07-15T08:35:13.780Z,78.22
2016-07-15T08:36:13.813Z,78.61
2016-07-15T08:37:13.788Z,78.61
2016-07-15T08:38:14.213Z,77.94
2016-07-15T08:39:13.800Z,78.13
2016-07-15T08:40:13.824Z,77.94
2016-07-15T08:41:14.013Z,78.42
2016-07-15T08:42:13.862Z,78.55
2016-07-15T08:43:13.848Z,77.65
2016-07-15T08:44:13.842Z,78.07
2016-07-15T08:45:13.842Z,77.59
2016-07-15T08:46:14.609Z,77.59
2016-07-15T08:47:14.610Z,77.97
2016-07-15T08:48:13.897Z,76.35
2016-07-15T08:49:13.880Z,77.11
2016-07-15T08:50:14.610Z,77.5
2016-07-15T08:51:14.092Z,77.21
2016-07-15T08:52:13.894Z,77.02
2016-07-15T08:53:14.697Z,76.82
2016-07-15T08:54:14.111Z,76.82
2016-07-15T08:55:13.913Z,76.73
2016-07-15T08:56:13.919Z,77.02
2016-07-15T08:57:14.233Z,77.26
2016-07-15T08:58:14.886Z,77.94
2016-07-15T08:59:14.666Z,77.84
2016-07-15T09:00:14.363Z,77.65
2016-07-15T09:01:13.954Z,77.69
2016-07-15T09:02:13.973Z,78.17
2016-07-15T09:03:13.967Z,78.07
2016-07-15T09:04:13.977Z,78.07
2016-07-15T09:05:28.849Z,78.36
2016-07-15T09:07:13.994Z,78.36
2016-07-15T09:08:14.038Z,78.07
2016-07-15T09:09:14.056Z,78.07
2016-07-15T09:10:14.013Z,77.69
2016-07-15T09:11:14.029Z,78.17
2016-07-15T09:12:29.102Z,78.36
2016-07-15T09:13:14.089Z,78.17
2016-07-15T09:14:29.116Z,77.97
2016-07-15T09:15:14.812Z,77.97
2016-07-15T09:16:29.134Z,77.97
2016-07-15T09:17:15.024Z,78.07
2016-07-15T09:18:14.286Z,77.88
2016-07-15T09:19:14.287Z,77.4
2016-07-15T09:20:15.062Z,77.02
2016-07-15T09:21:15.475Z,77.21
2016-07-15T09:22:14.104Z,77.34
2016-07-15T09:23:14.111Z,76.29
2016-07-15T09:24:15.044Z,77.06
2016-07-15T09:25:14.890Z,76.86
2016-07-15T09:26:14.867Z,76.77
2016-07-15T09:27:14.347Z,76
2016-07-15T09:28:14.158Z,75.14
2016-07-15T09:29:14.885Z,74.85
2016-07-15T09:30:14.173Z,74.76
2016-07-15T09:31:14.217Z,74.79
2016-07-15T09:33:14.939Z,74.41
2016-07-15T09:34:14.215Z,74.98
2016-07-15T09:35:14.214Z,74.31
2016-07-15T09:36:14.218Z,73.65
2016-07-15T09:37:14.228Z,73.83
2016-07-15T09:38:14.232Z,73.74
2016-07-15T09:39:14.264Z,73.39
2016-07-15T09:40:14.256Z,73.3
2016-07-15T09:42:14.358Z,72.14
2016-07-15T09:43:14.276Z,72.14
2016-07-15T09:44:14.286Z,72.91
2016-07-15T09:45:14.296Z,72.63
2016-07-15T09:46:14.312Z,72.37
2016-07-15T09:47:14.314Z,72.28
2016-07-15T09:48:14.383Z,72.47
2016-07-15T09:49:14.345Z,72.66
2016-07-15T09:50:14.343Z,72.28
2016-07-15T09:51:14.654Z,71.89
2016-07-15T09:52:14.360Z,71.98
2016-07-15T09:53:15.133Z,72.28
2016-07-15T09:54:15.116Z,71.45
2016-07-15T09:55:15.117Z,71.45
2016-07-15T09:56:14.403Z,71.35
2016-07-15T09:57:14.666Z,71.25
2016-07-15T09:58:14.434Z,69.81
2016-07-15T09:59:15.490Z,69.37
2016-07-15T10:00:14.437Z,69.85
2016-07-15T10:01:14.452Z,70.33
2016-07-15T10:02:14.455Z,69.18
2016-07-15T10:03:14.471Z,69.37
2016-07-15T10:04:14.499Z,69.66
2016-07-15T10:05:14.509Z,68.98
2016-07-15T10:06:14.505Z,67.74
2016-07-15T10:07:15.685Z,68.54
2016-07-15T10:09:14.536Z,68.98
2016-07-15T10:10:15.295Z,68.73
2016-07-15T10:11:15.295Z,68.83
2016-07-15T10:12:15.305Z,67.19
2016-07-15T10:13:15.327Z,67.19
2016-07-15T10:14:14.605Z,67
2016-07-15T10:15:14.598Z,68.44
2016-07-15T10:16:14.613Z,67.1
2016-07-15T10:17:14.643Z,67.58
2016-07-15T10:18:15.563Z,67.29
2016-07-15T10:19:15.594Z,67.38
2016-07-15T10:20:15.408Z,68.25
2016-07-15T10:21:14.660Z,68.06
2016-07-15T10:22:14.684Z,68.38
2016-07-15T10:23:14.691Z,67.13
2016-07-15T10:24:14.704Z,66.65
2016-07-15T10:25:14.711Z,67.13
2016-07-15T10:26:14.733Z,67.9
2016-07-15T10:27:14.737Z,66.36
2016-07-15T10:28:14.953Z,67.03
2016-07-15T10:29:14.756Z,65.43
2016-07-15T10:30:14.769Z,66.1
2016-07-15T10:31:15.541Z,66.1
2016-07-15T10:32:15.271Z,65.24
2016-07-15T10:33:14.804Z,65.24
2016-07-15T10:34:15.031Z,64.86
2016-07-15T10:35:15.973Z,65.72
2016-07-15T10:36:15.575Z,64.18
2016-07-15T10:37:15.588Z,63.6
2016-07-15T10:38:14.870Z,64.18
2016-07-15T10:39:15.605Z,63.79
2016-07-15T10:40:14.892Z,63.7
2016-07-15T10:41:14.900Z,63.79
2016-07-15T10:42:15.690Z,63.89
2016-07-15T10:43:15.650Z,62.26
2016-07-15T10:44:15.140Z,62.26
2016-07-15T10:45:14.968Z,63.41
2016-07-15T10:46:14.969Z,62.64
2016-07-15T10:47:14.968Z,63.31
2016-07-15T10:48:15.873Z,63.02
2016-07-15T10:49:15.220Z,62.83
2016-07-15T10:50:15.023Z,63.99
2016-07-15T10:51:15.034Z,62.83
2016-07-15T10:52:15.137Z,63.02
2016-07-15T10:53:15.785Z,64.08
2016-07-15T10:54:15.051Z,62.64
2016-07-15T10:55:15.807Z,62.41
2016-07-15T10:56:15.850Z,62.8
2016-07-15T10:57:15.087Z,62.99
2016-07-15T10:58:15.326Z,63.48
2016-07-15T10:59:29.979Z,63.57
2016-07-15T11:00:15.119Z,63.67
2016-07-15T11:01:15.656Z,63.67
2016-07-15T11:02:15.877Z,63.76
2016-07-15T11:03:15.175Z,63.57
2016-07-15T11:04:15.184Z,64.25
2016-07-15T11:05:15.188Z,63.7
2016-07-15T11:06:15.202Z,64.18
2016-07-15T11:07:15.202Z,64.28
2016-07-15T11:08:15.221Z,64.66
2016-07-15T11:09:15.435Z,64.47
2016-07-15T11:10:15.301Z,64.47
2016-07-15T11:11:16.210Z,64.47
2016-07-15T11:12:15.262Z,63.31
2016-07-15T11:13:15.279Z,62.93
2016-07-15T11:14:15.303Z,63.67
2016-07-15T11:15:15.578Z,63.09
2016-07-15T11:16:15.310Z,62.13
2016-07-15T11:17:16.659Z,62.71
2016-07-15T11:18:15.576Z,62.99
2016-07-15T11:19:16.070Z,63.18
2016-07-15T11:20:15.382Z,63.76
2016-07-15T11:21:15.402Z,63.18
2016-07-15T11:22:30.659Z,63.76
2016-07-15T11:23:15.598Z,64.05
2016-07-15T11:24:16.181Z,64.15
2016-07-15T11:25:15.440Z,64.25
2016-07-15T11:26:15.424Z,63.79
2016-07-15T11:27:15.443Z,63.57
2016-07-15T11:28:15.458Z,63.6
2016-07-15T11:29:15.477Z,63.18
2016-07-15T11:30:15.478Z,62.61
2016-07-15T11:31:15.506Z,62.8
2016-07-15T11:32:15.523Z,63.09
2016-07-15T11:33:15.511Z,62.51
2016-07-15T11:34:15.711Z,62.99
2016-07-15T11:35:15.586Z,63.64
2016-07-15T11:36:15.547Z,64.02
2016-07-15T11:37:15.556Z,64.53
2016-07-15T11:39:15.591Z,63.95
2016-07-15T11:40:15.846Z,64.79
2016-07-15T11:41:16.556Z,64.53
2016-07-15T11:42:15.673Z,64.69
2016-07-15T11:43:16.343Z,64.25
2016-07-15T11:44:30.506Z,63.18
2016-07-15T11:45:16.983Z,63.57
2016-07-15T11:46:16.432Z,62.99
2016-07-15T11:47:15.670Z,63.76
2016-07-15T11:48:15.675Z,63.67
2016-07-15T11:49:15.715Z,62.71
2016-07-15T11:50:15.700Z,63.09
2016-07-15T11:51:16.627Z,62.8
2016-07-15T11:52:15.716Z,63.09
2016-07-15T11:53:15.729Z,62.64
2016-07-15T11:54:30.601Z,62.93
2016-07-15T11:55:15.926Z,62.93
2016-07-15T11:56:16.520Z,62.93
2016-07-15T11:57:15.780Z,62.93
2016-07-15T11:58:16.517Z,63.34
2016-07-15T11:59:15.794Z,63.44
2016-07-15T12:00:15.803Z,62.96
2016-07-15T12:01:15.816Z,62.09
2016-07-15T12:02:15.827Z,62.19
2016-07-15T12:03:15.936Z,62.87
2016-07-15T12:04:16.591Z,60.55
2016-07-15T12:05:16.640Z,61.16
2016-07-15T12:06:30.747Z,60.1
2016-07-15T12:07:16.630Z,59.81
2016-07-15T12:08:16.853Z,60.39
2016-07-15T12:09:15.920Z,59.97
2016-07-15T12:10:15.922Z,59.52
2016-07-15T12:11:15.932Z,59.81
2016-07-15T12:13:16.086Z,60.58
2016-07-15T12:14:15.985Z,60.87
2016-07-15T12:15:16.718Z,60.58
2016-07-15T12:16:16.001Z,60
2016-07-15T12:17:16.012Z,60.2
2016-07-15T12:18:16.840Z,59.62
2016-07-15T12:19:16.779Z,59.43
2016-07-15T12:20:16.254Z,59.62
2016-07-15T12:21:16.369Z,59.33
2016-07-15T12:22:16.078Z,60.3
2016-07-15T12:23:17.032Z,60.1
2016-07-15T12:24:16.093Z,59.69
2016-07-15T12:25:16.877Z,60.65
2016-07-15T12:26:16.875Z,60.46
2016-07-15T12:27:16.142Z,60.94
2016-07-15T12:28:16.147Z,61.9
2016-07-15T12:29:16.155Z,62.38
2016-07-15T12:30:16.371Z,61.52
2016-07-15T12:31:16.385Z,62
2016-07-15T12:32:16.191Z,62.38
2016-07-15T12:33:16.211Z,61.87
2016-07-15T12:34:16.997Z,61.29
2016-07-15T12:35:17.378Z,61
2016-07-15T12:36:16.243Z,61
2016-07-15T12:37:16.262Z,61.77
2016-07-15T12:38:16.261Z,62.83
2016-07-15T12:40:16.305Z,62.41
2016-07-15T12:41:16.305Z,62.03
2016-07-15T12:42:16.363Z,61.46
2016-07-15T12:43:16.324Z,61.94
2016-07-15T12:44:16.331Z,61.84
2016-07-15T12:45:16.651Z,62.03
2016-07-15T12:46:16.562Z,62.51
2016-07-15T12:47:16.566Z,62.99
2016-07-15T12:48:16.387Z,62.38
2016-07-15T12:49:16.619Z,62.58
2016-07-15T12:50:16.725Z,62.1
2016-07-15T12:51:17.205Z,62.48
2016-07-15T12:52:16.523Z,63.06
2016-07-15T12:53:16.525Z,62.77
2016-07-15T12:54:16.749Z,63.06
2016-07-15T12:55:16.734Z,62.87
2016-07-15T12:56:16.524Z,63.38
2016-07-15T12:57:31.541Z,63.15
2016-07-15T12:58:17.420Z,62.58
2016-07-15T12:59:17.432Z,61.81
2016-07-15T13:00:17.234Z,62.19
2016-07-15T13:01:16.625Z,61.71
2016-07-15T13:02:16.627Z,61.91
2016-07-15T13:03:16.851Z,62
2016-07-15T13:04:16.673Z,61.91
2016-07-15T13:05:16.689Z,61.81
2016-07-15T13:06:16.697Z,62.19
2016-07-15T13:07:16.644Z,62.38
2016-07-15T13:08:16.770Z,62.58
2016-07-15T13:09:16.754Z,60.85
2016-07-15T13:10:16.733Z,62.19
2016-07-15T13:11:31.760Z,62.38
2016-07-15T13:12:17.927Z,61.81
2016-07-15T13:13:16.820Z,62.68
2016-07-15T13:14:16.841Z,62.8
2016-07-15T13:15:16.789Z,62.19
2016-07-15T13:16:17.424Z,61.94
2016-07-15T13:17:17.463Z,62.51
2016-07-15T13:18:16.692Z,62.8